Time;durP1;ratioP1;P1;durP2;ratioP2;P2;SDS_P1;SDS_P2;PMS_P1;PMS_P2;Temp;Humidity;BMP_temperature;BMP_pressure;BME280_temperature;BME280_humidity;BME280_pressure;Samples;Min_cycle;Max_cycle;Signal;HPM_P1;HPM_P2
2022/04/07 00:02:08;;;;;;;1.73;1.63;;;10.20;22.20;;;;;;7362335;19;20010;-61
2022/04/07 00:04:38;;;;;;;1.95;1.40;;;10.20;22.20;;;;;;7363333;19;20381;-60
2022/04/07 00:07:08;;;;;;;2.63;1.55;;;10.20;22.30;;;;;;7359724;19;20018;-62
2022/04/07 00:09:44;;;;;;;1.98;1.50;;;10.20;22.80;;;;;;7387085;19;20034;-63
2022/04/07 00:12:14;;;;;;;1.85;1.50;;;10.20;22.20;;;;;;7360989;19;20010;-61
2022/04/07 00:14:44;;;;;;;3.03;1.30;;;10.30;22.20;;;;;;7361981;19;20103;-62
2022/04/07 00:17:14;;;;;;;2.13;1.23;;;10.30;20.00;;;;;;7360152;19;20078;-62
2022/04/07 00:19:44;;;;;;;1.88;1.00;;;10.30;19.30;;;;;;7363403;19;20081;-62
2022/04/07 00:22:14;;;;;;;3.17;1.42;;;10.30;19.20;;;;;;7361003;19;20034;-62
2022/04/07 00:24:47;;;;;;;2.22;1.30;;;10.20;19.80;;;;;;7384565;19;20751;-62
2022/04/07 00:27:17;;;;;;;1.85;1.30;;;10.20;22.10;;;;;;7360032;19;20014;-61
2022/04/07 00:29:47;;;;;;;1.67;1.27;;;10.10;23.40;;;;;;7363411;19;20014;-61
2022/04/07 00:32:17;;;;;;;2.25;1.33;;;10.00;23.30;;;;;;7360422;19;20014;-62
2022/04/07 00:34:49;;;;;;;1.55;1.40;;;10.00;23.90;;;;;;7361738;19;20018;-62
2022/04/07 00:37:22;;;;;;;1.65;1.30;;;10.00;23.50;;;;;;7359567;19;20011;-61
2022/04/07 00:39:55;;;;;;;1.50;1.20;;;10.10;20.80;;;;;;7384094;19;20018;-61
2022/04/07 00:42:27;;;;;;;2.75;1.48;;;10.10;21.00;;;;;;7357545;19;20062;-62
2022/04/07 00:44:57;;;;;;;1.80;1.10;;;10.10;20.30;;;;;;7356974;19;20126;-61
2022/04/07 00:47:28;;;;;;;1.35;1.15;;;10.10;20.80;;;;;;7356151;19;20015;-61
2022/04/07 00:50:00;;;;;;;1.77;1.30;;;10.10;18.60;;;;;;7358892;19;20041;-61
2022/04/07 00:52:32;;;;;;;1.65;1.23;;;10.20;18.60;;;;;;7360419;19;20395;-61
2022/04/07 00:55:06;;;;;;;2.97;1.20;;;10.20;17.70;;;;;;7380498;19;20573;-61
2022/04/07 00:57:38;;;;;;;1.20;1.00;;;10.20;16.50;;;;;;7388041;19;20024;-61
2022/04/07 01:00:11;;;;;;;2.00;1.50;;;10.20;17.20;;;;;;7365850;19;20078;-62
2022/04/07 01:02:41;;;;;;;1.40;1.20;;;10.20;16.70;;;;;;7366638;19;20090;-61
2022/04/07 01:05:14;;;;;;;1.70;1.08;;;10.20;15.20;;;;;;7364855;19;20007;-62
2022/04/07 01:07:46;;;;;;;1.00;0.90;;;10.30;14.40;;;;;;7367043;19;20011;-62
2022/04/07 01:10:18;;;;;;;1.80;1.00;;;10.30;14.90;;;;;;7365170;19;20049;-62
2022/04/07 01:12:48;;;;;;;1.73;1.17;;;10.20;15.20;;;;;;7388440;19;20470;-61
2022/04/07 01:15:18;;;;;;;1.33;1.00;;;10.20;15.60;;;;;;7364199;19;20074;-62
2022/04/07 01:17:48;;;;;;;3.40;1.15;;;10.20;15.00;;;;;;7366700;19;20014;-62
2022/04/07 01:20:18;;;;;;;2.50;1.02;;;10.20;14.40;;;;;;7367739;19;20014;-61
2022/04/07 01:22:51;;;;;;;1.23;1.00;;;10.10;14.30;;;;;;7367007;19;20058;-60
2022/04/07 01:25:25;;;;;;;3.10;0.80;;;10.10;15.10;;;;;;7365075;19;20093;-62
2022/04/07 01:27:55;;;;;;;0.88;0.77;;;10.10;14.80;;;;;;7391772;19;20010;-61
2022/04/07 01:30:26;;;;;;;1.00;0.70;;;10.10;14.00;;;;;;7368375;19;20014;-61
2022/04/07 01:32:58;;;;;;;1.40;0.68;;;10.10;12.40;;;;;;7366584;19;20085;-62
2022/04/07 01:35:30;;;;;;;1.63;0.70;;;10.00;13.10;;;;;;7363535;19;20021;-61
2022/04/07 01:38:01;;;;;;;2.20;0.77;;;10.00;13.40;;;;;;7369946;19;20010;-61
2022/04/07 01:40:37;;;;;;;1.17;0.60;;;9.90;14.60;;;;;;7365541;19;20547;-61
2022/04/07 01:43:10;;;;;;;0.63;0.50;;;9.80;16.10;;;;;;7361347;19;20607;-63
2022/04/07 01:45:42;;;;;;;0.88;0.45;;;9.80;16.00;;;;;;7382892;19;20020;-61
2022/04/07 01:48:12;;;;;;;1.20;0.80;;;9.70;16.80;;;;;;7369636;19;20006;-62
2022/04/07 01:50:43;;;;;;;1.17;0.70;;;9.70;18.20;;;;;;7368231;19;20014;-60
2022/04/07 01:53:15;;;;;;;1.33;0.70;;;9.60;18.80;;;;;;7366305;19;20029;-61
2022/04/07 01:55:48;;;;;;;1.52;0.60;;;9.60;19.20;;;;;;7362556;19;20042;-61
2022/04/07 01:58:19;;;;;;;1.42;0.82;;;9.60;20.00;;;;;;7371639;19;20018;-61
2022/04/07 02:00:49;;;;;;;0.80;0.70;;;9.60;21.60;;;;;;7392126;19;20512;-62
2022/04/07 02:03:19;;;;;;;1.02;0.70;;;9.60;22.20;;;;;;7364331;19;20044;-61
2022/04/07 02:05:49;;;;;;;0.93;0.70;;;9.60;22.50;;;;;;7359435;19;20014;-61
2022/04/07 02:08:18;;;;;;;1.67;0.57;;;9.60;21.90;;;;;;7368913;19;20021;-61
2022/04/07 02:10:51;;;;;;;1.20;0.60;;;9.70;22.20;;;;;;7367886;19;20476;-61
2022/04/07 02:13:21;;;;;;;1.02;0.70;;;9.70;21.10;;;;;;7365564;19;20014;-61
2022/04/07 02:15:51;;;;;;;0.90;0.60;;;9.70;21.20;;;;;;7382509;19;20011;-60
2022/04/07 02:18:21;;;;;;;1.52;0.70;;;9.70;20.10;;;;;;7366834;19;20006;-60
2022/04/07 02:20:51;;;;;;;2.50;0.70;;;9.70;19.10;;;;;;7366254;19;20398;-61
2022/04/07 02:23:21;;;;;;;0.77;0.50;;;9.80;16.80;;;;;;7365681;19;20018;-62
2022/04/07 02:25:53;;;;;;;1.40;0.70;;;9.80;17.60;;;;;;7361918;19;20070;-61
2022/04/07 02:28:24;;;;;;;0.43;0.40;;;9.80;15.60;;;;;;7368418;19;20006;-61
2022/04/07 02:30:54;;;;;;;0.80;0.60;;;9.90;15.30;;;;;;7388629;19;20022;-61
2022/04/07 02:33:23;;;;;;;0.63;0.50;;;9.90;14.40;;;;;;7365456;19;20020;-62
2022/04/07 02:35:53;;;;;;;0.93;0.50;;;9.90;14.90;;;;;;7360589;19;20018;-62
2022/04/07 02:38:23;;;;;;;1.17;1.00;;;9.90;13.60;;;;;;7365888;19;20466;-62
2022/04/07 02:40:56;;;;;;;0.70;0.50;;;9.90;13.30;;;;;;7366291;19;20011;-61
2022/04/07 02:43:26;;;;;;;2.05;0.70;;;9.90;13.90;;;;;;7364587;19;20006;-62
2022/04/07 02:45:56;;;;;;;1.02;0.70;;;9.90;15.40;;;;;;7384091;19;20114;-61
2022/04/07 02:48:26;;;;;;;3.38;0.90;;;9.80;15.60;;;;;;7367149;19;20090;-61
2022/04/07 02:50:56;;;;;;;0.80;0.57;;;9.70;16.20;;;;;;7365913;19;20011;-62
2022/04/07 02:53:27;;;;;;;2.78;0.60;;;9.70;18.00;;;;;;7364671;19;20774;-62
2022/04/07 02:55:59;;;;;;;0.70;0.52;;;9.60;19.10;;;;;;7360834;19;20035;-62
2022/04/07 02:58:29;;;;;;;1.05;0.73;;;9.50;19.80;;;;;;7365780;19;20754;-61
2022/04/07 03:00:59;;;;;;;1.08;0.75;;;9.50;20.00;;;;;;7388743;19;20011;-62
2022/04/07 03:03:29;;;;;;;2.05;0.70;;;9.50;21.40;;;;;;7363807;19;20367;-62
2022/04/07 03:05:59;;;;;;;2.13;0.82;;;9.50;21.70;;;;;;7361457;19;20042;-62
2022/04/07 03:08:29;;;;;;;1.92;0.77;;;9.50;21.80;;;;;;7365965;19;20025;-61
2022/04/07 03:11:01;;;;;;;1.40;0.73;;;9.50;22.40;;;;;;7365778;19;20003;-61
2022/04/07 03:13:31;;;;;;;1.67;1.27;;;9.40;22.40;;;;;;7364136;19;20004;-62
2022/04/07 03:16:02;;;;;;;1.33;0.75;;;9.40;22.40;;;;;;7382213;19;20566;-62
2022/04/07 03:18:32;;;;;;;2.65;1.35;;;9.50;22.10;;;;;;7363811;19;20017;-61
2022/04/07 03:21:03;;;;;;;1.05;0.65;;;9.40;21.70;;;;;;7364817;19;20013;-62
2022/04/07 03:23:32;;;;;;;1.58;0.70;;;9.50;21.60;;;;;;7363107;19;20486;-62
2022/04/07 03:26:05;;;;;;;1.67;0.90;;;9.50;20.80;;;;;;7360478;19;20006;-61
2022/04/07 03:28:35;;;;;;;1.30;0.70;;;9.50;20.30;;;;;;7365957;19;20014;-61
2022/04/07 03:31:05;;;;;;;1.40;0.77;;;9.50;20.10;;;;;;7386511;19;20478;-61
2022/04/07 03:33:35;;;;;;;2.55;0.93;;;9.50;20.30;;;;;;7362596;19;20099;-62
2022/04/07 03:36:06;;;;;;;1.13;0.80;;;9.50;19.30;;;;;;7358083;19;20007;-62
2022/04/07 03:38:37;;;;;;;1.42;0.60;;;9.40;19.10;;;;;;7366289;19;20446;-62
2022/04/07 03:41:10;;;;;;;1.23;1.13;;;9.50;19.00;;;;;;7363956;19;20478;-62
2022/04/07 03:43:42;;;;;;;2.53;0.93;;;9.50;18.20;;;;;;7362443;19;20018;-62
2022/04/07 03:46:15;;;;;;;1.75;0.80;;;9.50;18.30;;;;;;7360496;19;20696;-62
2022/04/07 03:48:45;;;;;;;2.00;1.20;;;9.50;18.90;;;;;;7386691;19;20014;-62
2022/04/07 03:51:15;;;;;;;3.03;1.70;;;9.50;17.70;;;;;;7364339;19;20013;-62
2022/04/07 03:53:45;;;;;;;1.08;0.90;;;9.60;17.60;;;;;;7362291;19;20010;-61
2022/04/07 03:56:18;;;;;;;1.27;0.60;;;9.60;15.80;;;;;;7358438;19;20014;-62
2022/04/07 03:58:48;;;;;;;0.80;0.60;;;9.50;15.70;;;;;;7364951;19;20102;-61
2022/04/07 04:01:18;;;;;;;0.90;0.55;;;9.60;14.40;;;;;;7363661;19;20017;-62
2022/04/07 04:03:48;;;;;;;1.13;0.80;;;9.60;14.80;;;;;;7383007;19;20010;-60
2022/04/07 04:06:18;;;;;;;0.63;0.50;;;9.50;14.60;;;;;;7359864;19;20021;-62
2022/04/07 04:08:47;;;;;;;1.27;0.63;;;9.50;15.40;;;;;;7363532;19;20024;-62
2022/04/07 04:11:20;;;;;;;1.50;0.50;;;9.50;15.10;;;;;;7363467;19;20038;-62
2022/04/07 04:13:50;;;;;;;1.83;0.93;;;9.50;14.20;;;;;;7361469;19;20014;-61
2022/04/07 04:16:20;;;;;;;2.55;1.17;;;9.50;14.90;;;;;;7359809;19;20013;-62
2022/04/07 04:18:50;;;;;;;1.10;1.00;;;9.50;14.80;;;;;;7385212;19;20336;-61
2022/04/07 04:21:20;;;;;;;0.80;0.50;;;9.50;13.90;;;;;;7363341;19;20024;-61
2022/04/07 04:23:50;;;;;;;0.80;0.70;;;9.50;12.30;;;;;;7359636;19;20014;-60
2022/04/07 04:26:22;;;;;;;0.90;0.70;;;9.50;13.40;;;;;;7359107;19;20018;-60
2022/04/07 04:28:52;;;;;;;1.33;0.70;;;9.50;13.10;;;;;;7362800;19;20010;-60
2022/04/07 04:31:24;;;;;;;2.35;0.80;;;9.50;12.90;;;;;;7361697;19;20078;-61
2022/04/07 04:33:54;;;;;;;1.10;0.63;;;9.50;12.50;;;;;;7380329;19;20015;-61
2022/04/07 04:36:25;;;;;;;1.90;0.75;;;9.50;12.60;;;;;;7358198;19;20007;-60
2022/04/07 04:38:54;;;;;;;2.13;0.77;;;9.50;13.00;;;;;;7361828;19;20010;-61
2022/04/07 04:41:27;;;;;;;1.40;0.70;;;9.50;12.50;;;;;;7363054;19;20006;-60
2022/04/07 04:44:00;;;;;;;0.70;0.68;;;9.60;12.80;;;;;;7360101;19;20016;-61
2022/04/07 04:46:29;;;;;;;1.60;1.08;;;9.60;12.90;;;;;;7358429;19;20011;-60
2022/04/07 04:48:59;;;;;;;2.28;0.77;;;9.60;12.10;;;;;;7384165;19;20028;-60
2022/04/07 04:51:29;;;;;;;1.50;0.85;;;9.60;12.70;;;;;;7362359;19;20007;-60
2022/04/07 04:53:59;;;;;;;1.05;0.80;;;9.60;12.40;;;;;;7359072;19;20014;-60
2022/04/07 04:56:32;;;;;;;1.88;1.05;;;9.60;12.40;;;;;;7356267;19;20527;-60
2022/04/07 04:59:01;;;;;;;2.47;1.05;;;9.60;12.40;;;;;;7362689;19;20002;-60
2022/04/07 05:01:31;;;;;;;2.05;1.02;;;9.60;11.90;;;;;;7361913;19;20159;-60
2022/04/07 05:04:01;;;;;;;0.70;0.63;;;9.70;11.40;;;;;;7381089;19;20014;-61
2022/04/07 05:06:31;;;;;;;1.63;0.70;;;9.70;10.70;;;;;;7358134;19;20015;-60
2022/04/07 05:09:01;;;;;;;4.28;0.82;;;9.70;10.10;;;;;;7361086;19;20397;-60
2022/04/07 05:11:34;;;;;;;1.95;0.70;;;9.70;10.50;;;;;;7361285;19;20446;-60
2022/04/07 05:14:04;;;;;;;0.60;0.60;;;9.80;9.60;;;;;;7358604;19;20034;-60
2022/04/07 05:16:34;;;;;;;0.93;0.80;;;9.80;9.30;;;;;;7357840;19;20015;-61
2022/04/07 05:19:04;;;;;;;1.83;0.75;;;9.80;9.30;;;;;;7384334;19;20048;-60
2022/04/07 05:21:34;;;;;;;0.95;0.60;;;9.80;10.00;;;;;;7360405;19;20034;-60
2022/04/07 05:24:04;;;;;;;0.82;0.50;;;9.80;9.40;;;;;;7357686;19;20011;-60
2022/04/07 05:26:36;;;;;;;1.88;1.20;;;9.90;10.20;;;;;;7356539;19;20021;-61
2022/04/07 05:29:06;;;;;;;1.52;0.80;;;9.90;9.50;;;;;;7361935;19;20017;-60
2022/04/07 05:31:36;;;;;;;1.38;0.70;;;9.90;9.70;;;;;;7360389;19;21234;-60
2022/04/07 05:34:06;;;;;;;1.27;0.90;;;9.80;9.90;;;;;;7379158;19;20010;-60
2022/04/07 05:36:36;;;;;;;2.30;0.75;;;9.90;10.80;;;;;;7355814;19;20006;-60
2022/04/07 05:39:06;;;;;;;1.33;0.80;;;9.80;11.00;;;;;;7360110;19;20031;-61
2022/04/07 05:41:39;;;;;;;0.93;0.60;;;9.90;11.30;;;;;;7363024;19;20007;-60
2022/04/07 05:44:09;;;;;;;0.98;0.70;;;9.80;12.00;;;;;;7365065;19;20051;-60
2022/04/07 05:46:39;;;;;;;1.63;0.60;;;9.90;12.10;;;;;;7363341;19;20147;-60
2022/04/07 05:49:13;;;;;;;2.53;0.70;;;9.90;10.30;;;;;;7368793;19;20020;-63
2022/04/07 05:51:42;;;;;;;1.73;0.88;;;10.00;9.20;;;;;;7387685;19;20038;-60
2022/04/07 05:54:16;;;;;;;1.55;0.60;;;10.10;9.30;;;;;;7365282;19;20123;-60
2022/04/07 05:56:48;;;;;;;1.20;0.70;;;10.00;8.50;;;;;;7361219;19;20482;-61
2022/04/07 05:59:18;;;;;;;2.88;0.70;;;10.10;7.80;;;;;;7367824;19;20164;-61
2022/04/07 06:01:48;;;;;;;1.27;0.50;;;10.20;7.30;;;;;;7365242;19;20011;-61
2022/04/07 06:04:19;;;;;;;1.95;0.50;;;10.40;6.00;;;;;;7366094;19;20115;-61
2022/04/07 06:06:49;;;;;;;1.77;0.63;;;10.60;5.30;;;;;;7384302;19;20002;-61
2022/04/07 06:09:19;;;;;;;0.90;0.60;;;10.70;3.40;;;;;;7366814;19;20367;-61
2022/04/07 06:11:51;;;;;;;1.52;0.68;;;10.90;2.00;;;;;;7363621;19;20010;-61
2022/04/07 06:14:24;;;;;;;1.10;0.50;;;10.90;2.40;;;;;;7366590;19;20073;-61
2022/04/07 06:16:54;;;;;;;0.93;0.50;;;10.80;1.30;;;;;;7361226;19;20038;-62
2022/04/07 06:19:24;;;;;;;0.98;0.50;;;10.90;1.30;;;;;;7367624;19;20062;-61
2022/04/07 06:21:54;;;;;;;2.53;0.43;;;10.90;1.00;;;;;;7384344;19;20013;-62
2022/04/07 06:24:24;;;;;;;3.22;1.60;;;11.00;1.00;;;;;;7362710;19;20089;-61
2022/04/07 06:26:56;;;;;;;0.40;0.30;;;11.00;1.00;;;;;;7361313;19;20016;-62
2022/04/07 06:29:26;;;;;;;0.30;0.30;;;11.00;1.00;;;;;;7367658;19;20106;-62
2022/04/07 06:31:56;;;;;;;1.48;0.50;;;10.90;1.00;;;;;;7362470;19;20014;-62
2022/04/07 06:34:30;;;;;;;0.68;0.40;;;10.90;1.00;;;;;;7365247;19;20022;-60
2022/04/07 06:37:00;;;;;;;2.55;1.05;;;10.80;1.00;;;;;;7383494;19;20183;-61
2022/04/07 06:39:30;;;;;;;0.45;0.30;;;10.80;1.00;;;;;;7366314;19;20022;-62
2022/04/07 06:42:02;;;;;;;6.47;0.80;;;10.80;1.00;;;;;;7362726;19;20413;-60
2022/04/07 06:44:32;;;;;;;0.82;0.40;;;10.80;1.00;;;;;;7365807;19;20016;-62
2022/04/07 06:47:02;;;;;;;1.85;0.40;;;10.90;1.00;;;;;;7360655;19;20011;-60
2022/04/07 06:49:32;;;;;;;2.30;0.40;;;10.90;1.00;;;;;;7366408;19;20025;-62
2022/04/07 06:52:04;;;;;;;1.98;0.40;;;10.90;1.00;;;;;;7383312;19;20287;-61
2022/04/07 06:54:33;;;;;;;2.20;0.50;;;11.00;1.00;;;;;;7363242;19;20780;-62
2022/04/07 06:57:06;;;;;;;1.70;0.50;;;11.10;1.00;;;;;;7360516;19;20013;-62
2022/04/07 06:59:36;;;;;;;1.67;0.50;;;11.10;1.00;;;;;;7365766;19;20010;-62
2022/04/07 07:02:06;;;;;;;0.63;0.32;;;11.10;1.00;;;;;;7362254;19;20014;-61
2022/04/07 07:04:36;;;;;;;0.60;0.30;;;11.10;1.00;;;;;;7364221;19;20035;-61
2022/04/07 07:07:06;;;;;;;1.95;0.40;;;11.10;1.00;;;;;;7383272;19;20024;-61
2022/04/07 07:09:36;;;;;;;0.77;0.50;;;11.10;1.00;;;;;;7366350;19;20505;-60
2022/04/07 07:12:09;;;;;;;0.65;0.40;;;11.20;1.00;;;;;;7361848;19;20006;-61
2022/04/07 07:14:39;;;;;;;1.58;0.52;;;11.20;1.00;;;;;;7364699;19;20016;-62
2022/04/07 07:17:10;;;;;;;1.48;0.40;;;11.40;1.00;;;;;;7360024;19;20024;-61
2022/04/07 07:19:40;;;;;;;1.67;0.35;;;11.40;1.00;;;;;;7365463;19;20014;-62
2022/04/07 07:22:10;;;;;;;2.35;0.65;;;11.50;1.00;;;;;;7381369;19;20089;-63
2022/04/07 07:24:40;;;;;;;1.50;0.70;;;11.50;1.00;;;;;;7384699;19;20010;-62
2022/04/07 07:27:12;;;;;;;1.83;0.50;;;11.60;1.00;;;;;;7361239;19;20021;-61
2022/04/07 07:29:42;;;;;;;2.92;0.40;;;11.60;1.00;;;;;;7366086;19;20010;-61
2022/04/07 07:32:12;;;;;;;0.82;0.40;;;11.50;1.00;;;;;;7362129;19;20139;-61
2022/04/07 07:34:42;;;;;;;0.93;0.40;;;11.70;1.00;;;;;;7363133;19;20011;-61
2022/04/07 07:37:12;;;;;;;5.80;0.60;;;11.70;1.00;;;;;;7362593;19;20010;-62
2022/04/07 07:39:42;;;;;;;1.95;0.43;;;11.70;1.00;;;;;;7387321;19;20354;-61
2022/04/07 07:42:15;;;;;;;0.60;0.30;;;11.60;1.00;;;;;;7361182;19;20010;-61
2022/04/07 07:44:46;;;;;;;2.03;0.40;;;11.60;1.00;;;;;;7362546;19;20014;-61
2022/04/07 07:47:16;;;;;;;1.02;0.57;;;11.60;1.00;;;;;;7359088;19;20474;-61
2022/04/07 07:49:46;;;;;;;0.60;0.30;;;11.70;1.00;;;;;;7364361;19;20470;-61
2022/04/07 07:52:16;;;;;;;1.35;0.40;;;11.80;1.00;;;;;;7361699;19;20014;-61
2022/04/07 07:54:46;;;;;;;0.60;0.20;;;11.80;1.00;;;;;;7384020;19;20018;-62
2022/04/07 07:57:18;;;;;;;1.63;0.43;;;11.90;1.00;;;;;;7358788;19;20018;-61
2022/04/07 07:59:49;;;;;;;2.92;0.57;;;11.90;1.00;;;;;;7363457;19;20679;-61
2022/04/07 08:02:18;;;;;;;1.85;0.50;;;11.90;1.00;;;;;;7359302;19;20098;-61
2022/04/07 08:04:48;;;;;;;0.90;0.32;;;11.90;1.00;;;;;;7360734;19;20010;-61
2022/04/07 08:07:18;;;;;;;3.65;0.50;;;11.90;1.00;;;;;;7359060;19;20014;-62
2022/04/07 08:09:48;;;;;;;3.33;0.70;;;11.90;1.00;;;;;;7385531;19;20016;-64
2022/04/07 08:12:21;;;;;;;0.75;0.40;;;11.90;1.00;;;;;;7360116;19;20010;-61
2022/04/07 08:14:50;;;;;;;1.10;0.30;;;11.90;1.00;;;;;;7361038;19;20410;-63
2022/04/07 08:17:22;;;;;;;1.00;0.50;;;11.90;1.00;;;;;;7358282;19;20007;-61
2022/04/07 08:19:51;;;;;;;2.20;0.55;;;12.00;1.00;;;;;;7362638;19;20078;-62
2022/04/07 08:22:21;;;;;;;7.32;0.93;;;12.10;1.00;;;;;;7358578;19;20021;-61
2022/04/07 08:24:51;;;;;;;4.03;0.43;;;12.30;1.00;;;;;;7381550;19;20466;-63
2022/04/07 08:27:29;;;;;;;2.13;0.30;;;12.30;1.00;;;;;;7360511;19;20011;-61
2022/04/07 08:29:59;;;;;;;2.97;0.63;;;12.50;1.00;;;;;;7361900;19;20382;-62
2022/04/07 08:32:31;;;;;;;3.47;0.80;;;12.70;1.00;;;;;;7357122;19;20030;-62
2022/04/07 08:35:01;;;;;;;3.00;1.10;;;12.80;1.00;;;;;;7360983;19;20466;-61
2022/04/07 08:37:32;;;;;;;1.15;0.50;;;12.70;1.00;;;;;;7360851;19;20012;-62
2022/04/07 08:40:05;;;;;;;3.78;0.45;;;12.70;1.00;;;;;;7383201;19;20010;-61
2022/04/07 08:42:38;;;;;;;0.90;0.38;;;12.50;1.00;;;;;;7360530;19;20014;-61
2022/04/07 08:45:09;;;;;;;1.88;0.47;;;12.40;1.00;;;;;;7356950;19;20431;-61
2022/04/07 08:47:42;;;;;;;0.60;0.30;;;12.30;1.00;;;;;;7361504;19;20454;-61
2022/04/07 08:50:16;;;;;;;1.55;0.80;;;12.40;1.00;;;;;;7362103;19;20041;-61
2022/04/07 08:52:46;;;;;;;2.78;0.40;;;12.40;1.00;;;;;;7359521;19;20082;-60
2022/04/07 08:55:16;;;;;;;1.08;0.43;;;12.50;1.00;;;;;;7359142;19;20012;-62
2022/04/07 08:57:48;;;;;;;0.85;0.35;;;12.50;1.00;;;;;;7382153;19;20086;-60
2022/04/07 09:00:20;;;;;;;1.45;0.60;;;12.50;1.00;;;;;;7361213;19;20020;-60
2022/04/07 09:02:49;;;;;;;1.23;0.50;;;12.50;1.00;;;;;;7357277;19;20017;-61
2022/04/07 09:05:23;;;;;;;1.50;0.40;;;12.60;1.00;;;;;;7358726;19;20821;-61
2022/04/07 09:07:54;;;;;;;1.67;0.45;;;12.60;1.00;;;;;;7359900;19;20031;-60
2022/04/07 09:10:28;;;;;;;0.88;0.45;;;12.70;1.00;;;;;;7362206;19;20103;-61
2022/04/07 09:13:05;;;;;;;1.52;0.60;;;12.70;1.00;;;;;;7378701;19;20481;-62
2022/04/07 09:15:35;;;;;;;2.88;0.20;;;12.80;1.00;;;;;;7356541;19;20017;-60
2022/04/07 09:18:05;;;;;;;2.05;0.30;;;13.00;1.00;;;;;;7367427;19;20364;-61
2022/04/07 09:20:44;;;;;;;1.08;0.30;;;13.10;1.00;;;;;;7369892;19;20002;-60
2022/04/07 09:23:17;;;;;;;1.95;0.28;;;13.10;1.00;;;;;;7365606;19;20073;-61
2022/04/07 09:25:49;;;;;;;1.25;0.30;;;12.90;1.00;;;;;;7363388;19;20022;-61
2022/04/07 09:28:31;;;;;;;1.92;0.20;;;12.90;1.00;;;;;;7367638;19;20040;-62
2022/04/07 09:31:01;;;;;;;2.80;1.95;;;12.80;1.00;;;;;;7390047;19;20853;-61
2022/04/07 09:33:38;;;;;;;2.15;0.38;;;12.80;1.00;;;;;;7364571;19;20034;-60
2022/04/07 09:36:10;;;;;;;0.40;0.30;;;12.70;1.00;;;;;;7365467;19;20086;-61
2022/04/07 09:38:41;;;;;;;4.60;0.70;;;12.70;1.00;;;;;;7367590;19;20017;-62
2022/04/07 09:41:13;;;;;;;2.83;0.70;;;12.70;1.00;;;;;;7368701;19;20075;-62
2022/04/07 09:43:53;;;;;;;1.98;0.22;;;12.50;1.00;;;;;;7363639;19;20014;-61
2022/04/07 09:46:24;;;;;;;0.28;0.20;;;12.60;1.00;;;;;;7364103;19;20098;-61
2022/04/07 09:49:05;;;;;;;1.20;0.30;;;12.60;1.00;;;;;;7390001;19;20014;-61
2022/04/07 09:51:45;;;;;;;3.85;0.70;;;12.60;1.00;;;;;;7368393;19;20079;-62
2022/04/07 09:54:17;;;;;;;0.40;0.30;;;12.60;1.00;;;;;;7364076;19;20014;-62
2022/04/07 09:56:48;;;;;;;0.82;0.40;;;12.80;1.00;;;;;;7360904;19;20749;-61
2022/04/07 09:59:24;;;;;;;2.00;0.40;;;13.00;1.00;;;;;;7366012;19;20030;-61
2022/04/07 10:01:55;;;;;;;;;;;13.00;1.00;;;;;;7365192;19;20030;-62
2022/04/07 10:04:29;;;;;;;0.50;0.30;;;13.00;1.00;;;;;;7366412;19;19929;-65
2022/04/07 10:07:00;;;;;;;0.38;0.28;;;13.10;1.00;;;;;;7383915;19;20017;-61
2022/04/07 10:09:30;;;;;;;0.55;0.30;;;13.00;1.00;;;;;;7363492;19;20014;-60
2022/04/07 10:12:01;;;;;;;3.40;0.70;;;13.00;1.00;;;;;;7364573;19;20011;-61
2022/04/07 10:14:34;;;;;;;1.02;0.40;;;13.00;1.00;;;;;;7366121;19;20011;-62
2022/04/07 10:17:04;;;;;;;1.17;0.50;;;13.00;1.00;;;;;;7363049;19;20118;-62
2022/04/07 10:19:39;;;;;;;0.93;0.40;;;13.00;1.00;;;;;;7367913;19;20011;-61
2022/04/07 10:22:50;;;;;;;0.60;0.43;;;13.20;1.00;;;;;;7386007;19;20010;-63
2022/04/07 10:25:20;;;;;;;0.65;0.20;;;13.40;1.00;;;;;;7258804;19;2004242;-64
2022/04/07 10:27:53;;;;;;;1.85;0.13;;;13.40;1.00;;;;;;7385608;19;20021;-63
2022/04/07 10:30:29;;;;;;;1.25;0.20;;;13.40;1.00;;;;;;7366757;19;20500;-63
2022/04/07 10:33:00;;;;;;;0.70;0.20;;;13.40;1.00;;;;;;7364058;19;20018;-62
2022/04/07 10:35:37;;;;;;;4.93;0.40;;;13.50;1.00;;;;;;7363690;19;20018;-61
2022/04/07 10:38:09;;;;;;;1.25;0.30;;;13.40;1.00;;;;;;7363055;19;20086;-62
2022/04/07 10:40:44;;;;;;;1.98;0.40;;;13.70;1.00;;;;;;7364089;19;20443;-62
2022/04/07 10:43:21;;;;;;;9.18;0.55;;;13.70;1.00;;;;;;7360979;19;20050;-62
2022/04/07 10:45:55;;;;;;;3.05;0.73;;;13.60;1.00;;;;;;7382029;19;20082;-61
2022/04/07 10:48:28;;;;;;;3.08;0.43;;;13.80;1.00;;;;;;7362886;19;20014;-63
2022/04/07 10:51:00;;;;;;;0.25;0.20;;;13.90;1.00;;;;;;7364288;19;20018;-62
2022/04/07 10:53:32;;;;;;;0.25;0.20;;;14.20;1.00;;;;;;7361629;19;20018;-62
2022/04/07 10:56:11;;;;;;;0.40;0.20;;;14.20;1.00;;;;;;7361892;19;20025;-62
2022/04/07 10:58:58;;;;;;;1.30;0.30;;;14.30;1.00;;;;;;7363380;19;20006;-63
2022/04/07 11:01:58;;;;;;;0.40;0.28;;;14.20;1.00;;;;;;7365428;19;20022;-62
2022/04/07 11:04:35;;;;;;;4.22;0.50;;;14.30;1.00;;;;;;7362016;19;20014;-62
2022/04/07 11:07:16;;;;;;;1.95;0.30;;;14.60;1.00;;;;;;7379358;19;20026;-62
2022/04/07 11:10:04;;;;;;;7.43;0.63;;;14.60;1.00;;;;;;7363499;19;20035;-61
2022/04/07 11:12:37;;;;;;;1.48;0.30;;;14.50;1.00;;;;;;7360435;19;20331;-61
2022/04/07 11:15:30;;;;;;;0.90;0.45;;;14.50;1.00;;;;;;7358608;19;20365;-61
2022/04/07 11:18:07;;;;;;;1.45;0.30;;;14.50;1.00;;;;;;7363662;19;20014;-62
2022/04/07 11:20:38;;;;;;;2.08;0.30;;;14.40;1.00;;;;;;7363975;19;20021;-63
2022/04/07 11:23:09;;;;;;;2.20;0.40;;;14.30;1.00;;;;;;7360989;19;20014;-63
2022/04/07 11:25:40;;;;;;;3.72;0.22;;;14.20;1.00;;;;;;7359870;19;20493;-63
2022/04/07 11:28:14;;;;;;;3.17;0.30;;;14.30;1.00;;;;;;7379935;19;20022;-64
2022/04/07 11:30:46;;;;;;;2.47;0.43;;;14.60;1.00;;;;;;7383975;19;20097;-62
2022/04/07 11:33:38;;;;;;;0.20;0.20;;;14.80;1.00;;;;;;7360134;19;20022;-62
2022/04/07 11:36:34;;;;;;;2.53;0.17;;;14.80;1.00;;;;;;7360042;19;20505;-62
2022/04/07 11:39:12;;;;;;;0.55;0.30;;;14.80;1.00;;;;;;7360450;19;20053;-61
2022/04/07 11:41:44;;;;;;;0.32;0.10;;;14.80;1.00;;;;;;7362122;19;20550;-62
2022/04/07 11:44:17;;;;;;;0.95;0.43;;;14.60;1.00;;;;;;7360564;19;20013;-61
2022/04/07 11:46:47;;;;;;;2.17;0.30;;;14.80;1.00;;;;;;7358611;19;20011;-61
2022/04/07 11:49:20;;;;;;;3.92;0.30;;;14.90;1.00;;;;;;7364089;19;20122;-62
2022/04/07 11:51:50;;;;;;;2.03;0.25;;;14.80;1.00;;;;;;7382242;19;20074;-62
2022/04/07 11:54:21;;;;;;;0.50;0.40;;;14.70;1.00;;;;;;7361093;19;20036;-61
2022/04/07 11:56:54;;;;;;;1.58;0.28;;;15.00;1.00;;;;;;7354618;19;20460;-60
2022/04/07 11:59:23;;;;;;;1.30;0.93;;;14.90;1.00;;;;;;7364296;19;20781;-62
2022/04/07 12:01:53;;;;;;;3.33;0.25;;;15.00;1.00;;;;;;7358595;19;20453;-61
2022/04/07 12:04:34;;;;;;;1.83;0.45;;;14.80;1.00;;;;;;7360580;19;20035;-62
2022/04/07 12:07:04;;;;;;;0.28;0.10;;;14.90;1.00;;;;;;7381383;19;20031;-61
2022/04/07 12:09:34;;;;;;;1.25;0.20;;;14.60;1.00;;;;;;7362998;19;20367;-61
2022/04/07 12:12:05;;;;;;;1.40;0.20;;;14.50;1.00;;;;;;7354840;19;20011;-62
2022/04/07 12:14:38;;;;;;;0.13;0.10;;;14.70;1.00;;;;;;7359973;19;20011;-62
2022/04/07 12:17:09;;;;;;;2.78;0.22;;;14.50;1.00;;;;;;7358080;19;20007;-61
2022/04/07 12:19:48;;;;;;;1.50;0.20;;;14.50;1.00;;;;;;7362205;19;20015;-62
2022/04/07 12:22:21;;;;;;;0.20;0.10;;;14.40;1.00;;;;;;7359120;19;20383;-62
2022/04/07 12:25:01;;;;;;;1.45;0.20;;;14.40;1.00;;;;;;7381451;19;20021;-60
2022/04/07 12:27:33;;;;;;;1.00;0.30;;;14.40;1.00;;;;;;7358936;19;20046;-61
2022/04/07 12:30:04;;;;;;;0.82;0.30;;;14.40;1.00;;;;;;7361007;19;20605;-61
2022/04/07 12:32:58;;;;;;;3.65;0.30;;;14.30;1.00;;;;;;7360017;19;20106;-63
2022/04/07 12:35:50;;;;;;;0.55;0.10;;;14.40;1.00;;;;;;7356631;19;20018;-62
2022/04/07 12:38:20;;;;;;;2.08;0.30;;;14.50;1.00;;;;;;7360348;19;20046;-61
2022/04/07 12:40:50;;;;;;;0.68;0.10;;;14.60;1.00;;;;;;7361430;19;20017;-62
2022/04/07 12:43:20;;;;;;;0.32;0.30;;;14.50;1.00;;;;;;7355986;19;20015;-62
2022/04/07 12:45:58;;;;;;;1.80;0.55;;;14.70;1.00;;;;;;7379227;19;20014;-61
2022/04/07 12:48:28;;;;;;;1.48;0.30;;;14.70;1.00;;;;;;7360012;19;20625;-62
2022/04/07 12:51:01;;;;;;;0.73;0.40;;;14.70;1.00;;;;;;7366289;19;20059;-62
2022/04/07 12:53:34;;;;;;;2.70;0.50;;;14.80;1.00;;;;;;7361333;19;20003;-61
2022/04/07 12:56:20;;;;;;;0.25;0.20;;;14.90;1.00;;;;;;7364880;19;20036;-60
2022/04/07 12:59:03;;;;;;;0.50;0.20;;;14.90;1.00;;;;;;7365588;19;20371;-61
2022/04/07 13:01:34;;;;;;;1.67;0.20;;;14.70;1.00;;;;;;7368586;19;20102;-62
2022/04/07 13:04:04;;;;;;;0.98;0.30;;;14.90;1.00;;;;;;7384956;19;20006;-62
2022/04/07 13:06:38;;;;;;;0.77;0.30;;;14.70;1.00;;;;;;7363514;19;20016;-62
2022/04/07 13:09:09;;;;;;;0.65;0.30;;;15.00;1.00;;;;;;7365668;19;20014;-62
2022/04/07 13:11:42;;;;;;;1.35;0.65;;;14.80;1.00;;;;;;7367984;19;20375;-61
2022/04/07 13:14:13;;;;;;;0.57;0.20;;;15.10;1.00;;;;;;7365515;19;20498;-61
2022/04/07 13:16:44;;;;;;;0.70;0.25;;;15.00;1.00;;;;;;7364353;19;20090;-63
2022/04/07 13:19:15;;;;;;;0.63;0.17;;;15.30;1.00;;;;;;7367701;19;20058;-62
2022/04/07 13:21:47;;;;;;;1.88;0.43;;;15.30;1.00;;;;;;7388247;19;20016;-62